createdAt,value
2018-03-23T00:00:24.485Z,1002.88
2018-03-23T00:01:24.467Z,1002.88
2018-03-23T00:02:24.449Z,1002.86
2018-03-23T00:03:24.430Z,1002.85
2018-03-23T00:04:24.413Z,1002.89
2018-03-23T00:05:24.391Z,1002.85
2018-03-23T00:06:24.371Z,1002.86
2018-03-23T00:07:24.351Z,1002.8
2018-03-23T00:08:24.333Z,1002.84
2018-03-23T00:09:24.313Z,1002.84
2018-03-23T00:10:24.296Z,1002.78
2018-03-23T00:11:24.276Z,1002.81
2018-03-23T00:12:24.257Z,1002.79
2018-03-23T00:13:24.236Z,1002.82
2018-03-23T00:14:24.218Z,1002.82
2018-03-23T00:15:24.200Z,1002.8
2018-03-23T00:16:24.186Z,1002.79
2018-03-23T00:17:24.162Z,1002.79
2018-03-23T00:18:24.140Z,1002.75
2018-03-23T00:19:24.125Z,1002.76
2018-03-23T00:20:24.104Z,1002.74
2018-03-23T00:21:24.086Z,1002.69
2018-03-23T00:22:24.065Z,1002.76
2018-03-23T00:23:24.052Z,1002.76
2018-03-23T00:24:24.029Z,1002.71
2018-03-23T00:25:24.008Z,1002.71
2018-03-23T00:26:23.988Z,1002.71
2018-03-23T00:27:23.969Z,1002.71
2018-03-23T00:28:23.950Z,1002.75
2018-03-23T00:29:23.930Z,1002.77
2018-03-23T00:30:23.912Z,1002.71
2018-03-23T00:31:23.900Z,1002.71
2018-03-23T00:32:23.874Z,1002.7
2018-03-23T00:33:23.858Z,1002.68
2018-03-23T00:34:23.834Z,1002.71
2018-03-23T00:35:23.815Z,1002.69
2018-03-23T00:36:23.798Z,1002.63
2018-03-23T00:37:23.777Z,1002.7
2018-03-23T00:38:23.766Z,1002.69
2018-03-23T00:39:23.739Z,1002.67
2018-03-23T00:40:23.740Z,1002.69
2018-03-23T00:41:23.700Z,1002.68
2018-03-23T00:42:23.719Z,1002.68
2018-03-23T00:43:23.698Z,1002.71
2018-03-23T00:44:23.740Z,1002.66
2018-03-23T00:45:23.658Z,1002.65
2018-03-23T00:46:23.604Z,1002.66
2018-03-23T00:47:23.584Z,1002.66
2018-03-23T00:48:23.564Z,1002.69
2018-03-23T00:49:23.546Z,1002.66
2018-03-23T00:50:23.529Z,1002.66
2018-03-23T00:51:23.509Z,1002.68
2018-03-23T00:52:23.487Z,1002.69
2018-03-23T00:53:23.485Z,1002.64
2018-03-23T00:54:23.453Z,1002.69
2018-03-23T00:55:23.436Z,1002.61
2018-03-23T00:56:23.410Z,1002.62
2018-03-23T00:57:23.389Z,1002.6
2018-03-23T00:58:23.373Z,1002.63
2018-03-23T00:59:23.352Z,1002.59
2018-03-23T01:00:23.333Z,1002.59
2018-03-23T01:01:23.314Z,1002.62
2018-03-23T01:02:23.295Z,1002.57
2018-03-23T01:03:23.277Z,1002.57
2018-03-23T01:04:23.256Z,1002.6
2018-03-23T01:05:23.241Z,1002.57
2018-03-23T01:06:23.216Z,1002.56
2018-03-23T01:07:23.248Z,1002.53
2018-03-23T01:08:23.177Z,1002.55
2018-03-23T01:09:23.159Z,1002.51
2018-03-23T01:10:23.138Z,1002.51
2018-03-23T01:11:23.120Z,1002.45
2018-03-23T01:12:23.101Z,1002.49
2018-03-23T01:13:23.080Z,1002.45
2018-03-23T01:14:23.060Z,1002.41
2018-03-23T01:15:23.040Z,1002.41
2018-03-23T01:16:23.023Z,1002.44
2018-03-23T01:17:23.002Z,1002.47
2018-03-23T01:18:22.984Z,1002.43
2018-03-23T01:19:22.967Z,1002.42
2018-03-23T01:20:22.946Z,1002.39
2018-03-23T01:21:22.923Z,1002.43
2018-03-23T01:22:22.909Z,1002.41
2018-03-23T01:23:22.944Z,1002.41
2018-03-23T01:24:22.865Z,1002.35
2018-03-23T01:25:22.850Z,1002.36
2018-03-23T01:26:22.827Z,1002.32
2018-03-23T01:27:22.806Z,1002.33
2018-03-23T01:28:22.789Z,1002.35
2018-03-23T01:29:22.771Z,1002.32
2018-03-23T01:30:22.749Z,1002.34
2018-03-23T01:31:22.731Z,1002.29
2018-03-23T01:32:22.709Z,1002.29
2018-03-23T01:33:22.691Z,1002.2
2018-03-23T01:34:22.670Z,1002.29
2018-03-23T01:35:22.653Z,1002.27
2018-03-23T01:36:22.630Z,1002.26
2018-03-23T01:37:22.613Z,1002.24
2018-03-23T01:38:22.595Z,1002.31
2018-03-23T01:39:22.570Z,1002.28
2018-03-23T01:40:22.552Z,1002.22
2018-03-23T01:41:22.533Z,1002.25
2018-03-23T01:42:22.513Z,1002.27
2018-03-23T01:43:22.493Z,1002.27
2018-03-23T01:44:22.473Z,1002.24
2018-03-23T01:45:22.455Z,1002.22
2018-03-23T01:46:22.436Z,1002.17
2018-03-23T01:47:22.417Z,1002.22
2018-03-23T01:48:22.397Z,1002.22
2018-03-23T01:49:22.375Z,1002.18
2018-03-23T01:50:22.412Z,1002.16
2018-03-23T01:51:22.334Z,1002.15
2018-03-23T01:52:22.426Z,1002.14
2018-03-23T01:53:22.295Z,1002.12
2018-03-23T01:54:22.276Z,1002.13
2018-03-23T01:55:22.260Z,1002.13
2018-03-23T01:56:22.236Z,1002.09
2018-03-23T01:57:22.420Z,1002.1
2018-03-23T01:58:22.197Z,1002.09
2018-03-23T01:59:22.180Z,1002.05
2018-03-23T02:00:22.157Z,1002.07
2018-03-23T02:01:22.156Z,1002.09
2018-03-23T02:02:22.119Z,1002.06
2018-03-23T02:03:22.097Z,1002.07
2018-03-23T02:04:22.079Z,1002.06
2018-03-23T02:05:22.059Z,1002.02
2018-03-23T02:06:22.040Z,1002
2018-03-23T02:07:22.025Z,1002.02
2018-03-23T02:08:22.000Z,1001.99
2018-03-23T02:09:21.984Z,1002
2018-03-23T02:10:21.961Z,1002
2018-03-23T02:11:21.942Z,1001.99
2018-03-23T02:12:21.924Z,1002
2018-03-23T02:13:22.024Z,1001.97
2018-03-23T02:14:21.883Z,1001.96
2018-03-23T02:15:21.862Z,1001.94
2018-03-23T02:16:21.842Z,1001.96
2018-03-23T02:17:21.837Z,1001.93
2018-03-23T02:18:21.803Z,1001.88
2018-03-23T02:19:21.793Z,1001.92
2018-03-23T02:20:21.769Z,1001.86
2018-03-23T02:21:21.746Z,1001.91
2018-03-23T02:22:21.725Z,1001.83
2018-03-23T02:23:21.705Z,1001.84
2018-03-23T02:24:21.743Z,1001.79
2018-03-23T02:25:21.667Z,1001.84
2018-03-23T02:26:21.702Z,1001.81
2018-03-23T02:27:21.658Z,1001.77
2018-03-23T02:28:21.696Z,1001.76
2018-03-23T02:29:21.659Z,1001.74
2018-03-23T02:30:21.648Z,1001.75
2018-03-23T02:31:21.592Z,1001.77
2018-03-23T02:32:21.605Z,1001.69
2018-03-23T02:33:21.529Z,1001.75
2018-03-23T02:34:21.489Z,1001.75
2018-03-23T02:35:21.483Z,1001.72
2018-03-23T02:36:21.465Z,1001.68
2018-03-23T02:37:21.434Z,1001.69
2018-03-23T02:38:21.408Z,1001.7
2018-03-23T02:39:21.410Z,1001.61
2018-03-23T02:40:21.372Z,1001.65
2018-03-23T02:41:21.355Z,1001.65
2018-03-23T02:42:21.332Z,1001.62
2018-03-23T02:43:21.318Z,1001.57
2018-03-23T02:44:21.297Z,1001.58
2018-03-23T02:45:21.273Z,1001.56
2018-03-23T02:46:21.263Z,1001.57
2018-03-23T02:47:21.235Z,1001.56
2018-03-23T02:48:21.217Z,1001.57
2018-03-23T02:49:21.194Z,1001.55
2018-03-23T02:50:21.191Z,1001.56
2018-03-23T02:51:21.156Z,1001.53
2018-03-23T02:52:21.197Z,1001.5
2018-03-23T02:53:21.117Z,1001.51
2018-03-23T02:54:21.096Z,1001.49
2018-03-23T02:55:21.076Z,1001.49
2018-03-23T02:56:21.057Z,1001.44
2018-03-23T02:57:21.038Z,1001.45
2018-03-23T02:58:21.018Z,1001.45
2018-03-23T02:59:20.995Z,1001.47
2018-03-23T03:00:20.978Z,1001.41
2018-03-23T03:01:20.969Z,1001.44
2018-03-23T03:02:20.938Z,1001.42
2018-03-23T03:03:20.917Z,1001.43
2018-03-23T03:04:20.920Z,1001.42
2018-03-23T03:05:20.877Z,1001.44
2018-03-23T03:06:20.860Z,1001.45
2018-03-23T03:07:20.839Z,1001.45
2018-03-23T03:08:20.820Z,1001.44
2018-03-23T03:09:20.798Z,1001.43
2018-03-23T03:10:20.784Z,1001.48
2018-03-23T03:11:20.765Z,1001.44
2018-03-23T03:12:20.753Z,1001.45
2018-03-23T03:13:20.724Z,1001.4
2018-03-23T03:14:20.703Z,1001.38
2018-03-23T03:15:20.680Z,1001.39
2018-03-23T03:16:20.661Z,1001.39
2018-03-23T03:17:20.640Z,1001.4
2018-03-23T03:18:20.621Z,1001.35
2018-03-23T03:19:20.603Z,1001.39
2018-03-23T03:20:20.581Z,1001.41
2018-03-23T03:21:20.561Z,1001.4
2018-03-23T03:22:20.542Z,1001.38
2018-03-23T03:23:20.572Z,1001.33
2018-03-23T03:24:20.520Z,1001.31
2018-03-23T03:25:20.482Z,1001.32
2018-03-23T03:26:20.461Z,1001.33
2018-03-23T03:27:20.470Z,1001.31
2018-03-23T03:28:20.471Z,1001.27
2018-03-23T03:29:20.464Z,1001.28
2018-03-23T03:30:20.388Z,1001.26
2018-03-23T03:31:20.366Z,1001.25
2018-03-23T03:32:20.344Z,1001.28
2018-03-23T03:33:20.324Z,1001.23
2018-03-23T03:34:20.360Z,1001.19
2018-03-23T03:35:20.284Z,1001.16
2018-03-23T03:36:20.307Z,1001.18
2018-03-23T03:37:20.247Z,1001.1
2018-03-23T03:38:20.247Z,1001.11
2018-03-23T03:39:20.228Z,1001.1
2018-03-23T03:40:20.186Z,1001.13
2018-03-23T03:41:20.166Z,1001.08
2018-03-23T03:42:20.148Z,1001.07
2018-03-23T03:43:20.135Z,1001.05
2018-03-23T03:44:20.109Z,1001.04
2018-03-23T03:45:20.088Z,1001.06
2018-03-23T03:46:20.068Z,1001.06
2018-03-23T03:47:20.052Z,1001
2018-03-23T03:48:20.028Z,1001.01
2018-03-23T03:49:20.010Z,1001
2018-03-23T03:50:19.990Z,1000.97
2018-03-23T03:51:19.973Z,1000.99
2018-03-23T03:52:19.952Z,1000.99
2018-03-23T03:53:19.930Z,1000.98
2018-03-23T03:54:19.911Z,1001
2018-03-23T03:55:19.895Z,1001.01
2018-03-23T03:56:19.871Z,1000.99
2018-03-23T03:57:20.054Z,1000.97
2018-03-23T03:58:19.862Z,1000.99
2018-03-23T03:59:19.820Z,1001
2018-03-23T04:00:19.792Z,1000.96
2018-03-23T04:01:19.774Z,1000.96
2018-03-23T04:02:19.755Z,1000.96
2018-03-23T04:03:19.739Z,1000.98
2018-03-23T04:04:19.715Z,1000.96
2018-03-23T04:05:19.696Z,1000.99
2018-03-23T04:06:19.682Z,1000.98
2018-03-23T04:07:19.655Z,1000.97
2018-03-23T04:08:19.638Z,1000.96
2018-03-23T04:09:19.740Z,1000.97
2018-03-23T04:10:19.602Z,1000.95
2018-03-23T04:11:19.579Z,1000.96
2018-03-23T04:12:19.561Z,1000.95
2018-03-23T04:13:19.539Z,1000.95
2018-03-23T04:14:19.519Z,1000.92
2018-03-23T04:15:19.519Z,1000.92
2018-03-23T04:16:19.492Z,1000.88
2018-03-23T04:17:19.463Z,1000.88
2018-03-23T04:18:19.443Z,1000.89
2018-03-23T04:19:19.429Z,1000.84
2018-03-23T04:20:19.402Z,1000.81
2018-03-23T04:21:19.383Z,1000.78
2018-03-23T04:22:19.372Z,1000.79
2018-03-23T04:23:19.418Z,1000.8
2018-03-23T04:24:19.326Z,1000.78
2018-03-23T04:25:19.308Z,1000.77
2018-03-23T04:26:19.321Z,1000.77
2018-03-23T04:27:19.288Z,1000.77
2018-03-23T04:28:19.663Z,1000.76
2018-03-23T04:29:19.228Z,1000.77
2018-03-23T04:30:19.208Z,1000.75
2018-03-23T04:31:19.233Z,1000.76
2018-03-23T04:32:19.177Z,1000.74
2018-03-23T04:33:19.148Z,1000.74
2018-03-23T04:34:19.129Z,1000.75
2018-03-23T04:35:19.116Z,1000.73
2018-03-23T04:36:19.090Z,1000.72
2018-03-23T04:37:19.077Z,1000.71
2018-03-23T04:38:19.051Z,1000.72
2018-03-23T04:39:19.033Z,1000.68
2018-03-23T04:40:19.013Z,1000.72
2018-03-23T04:41:18.992Z,1000.68
2018-03-23T04:42:18.972Z,1000.71
2018-03-23T04:43:18.954Z,1000.7
2018-03-23T04:44:18.947Z,1000.65
2018-03-23T04:45:18.914Z,1000.67
2018-03-23T04:46:18.896Z,1000.67
2018-03-23T04:47:18.877Z,1000.65
2018-03-23T04:48:18.858Z,1000.62
2018-03-23T04:49:18.843Z,1000.6
2018-03-23T04:50:18.816Z,1000.6
2018-03-23T04:51:18.801Z,1000.62
2018-03-23T04:52:18.781Z,1000.61
2018-03-23T04:53:18.761Z,1000.57
2018-03-23T04:54:18.743Z,1000.55
2018-03-23T04:55:18.721Z,1000.56
2018-03-23T04:56:18.701Z,1000.56
2018-03-23T04:57:18.683Z,1000.58
2018-03-23T04:58:18.662Z,1000.54
2018-03-23T04:59:18.641Z,1000.52
2018-03-23T05:00:18.624Z,1000.52
2018-03-23T05:01:18.606Z,1000.5
2018-03-23T05:02:18.586Z,1000.5
2018-03-23T05:03:18.565Z,1000.49
2018-03-23T05:04:18.552Z,1000.48
2018-03-23T05:05:18.526Z,1000.5
2018-03-23T05:06:18.508Z,1000.47
2018-03-23T05:07:18.485Z,1000.46
2018-03-23T05:08:18.467Z,1000.43
2018-03-23T05:09:18.492Z,1000.41
2018-03-23T05:10:18.430Z,1000.37
2018-03-23T05:11:18.407Z,1000.35
2018-03-23T05:12:18.397Z,1000.35
2018-03-23T05:13:18.420Z,1000.3
2018-03-23T05:14:18.390Z,1000.33
2018-03-23T05:15:18.331Z,1000.32
2018-03-23T05:16:18.356Z,1000.31
2018-03-23T05:17:18.336Z,1000.32
2018-03-23T05:18:18.364Z,1000.31
2018-03-23T05:19:18.257Z,1000.32
2018-03-23T05:20:18.235Z,1000.35
2018-03-23T05:21:18.213Z,1000.28
2018-03-23T05:22:18.197Z,1000.27
2018-03-23T05:23:18.172Z,1000.31
2018-03-23T05:24:18.198Z,1000.29
2018-03-23T05:25:18.135Z,1000.28
2018-03-23T05:26:18.115Z,1000.27
2018-03-23T05:27:18.101Z,1000.27
2018-03-23T05:28:18.079Z,1000.26
2018-03-23T05:29:18.069Z,1000.25
2018-03-23T05:30:18.036Z,1000.23
2018-03-23T05:31:18.018Z,1000.22
2018-03-23T05:32:18.000Z,1000.22
2018-03-23T05:33:17.981Z,1000.22
2018-03-23T05:34:17.957Z,1000.25
2018-03-23T05:35:17.941Z,1000.26
2018-03-23T05:36:17.923Z,1000.23
2018-03-23T05:37:17.950Z,1000.25
2018-03-23T05:38:17.879Z,1000.24
2018-03-23T05:39:17.860Z,1000.25
2018-03-23T05:40:17.875Z,1000.26
2018-03-23T05:41:17.821Z,1000.22
2018-03-23T05:42:17.804Z,1000.26
2018-03-23T05:43:17.784Z,1000.27
2018-03-23T05:44:17.764Z,1000.24
2018-03-23T05:45:17.744Z,1000.25
2018-03-23T05:46:17.757Z,1000.27
2018-03-23T05:47:17.708Z,1000.26
2018-03-23T05:48:17.687Z,1000.23
2018-03-23T05:49:17.666Z,1000.22
2018-03-23T05:50:17.692Z,1000.23
2018-03-23T05:51:17.627Z,1000.2
2018-03-23T05:52:17.607Z,1000.21
2018-03-23T05:53:17.618Z,1000.19
2018-03-23T05:54:17.569Z,1000.19
2018-03-23T05:55:17.547Z,1000.2
2018-03-23T05:56:17.531Z,1000.19
2018-03-23T05:57:17.710Z,1000.19
2018-03-23T05:58:17.491Z,1000.16
2018-03-23T05:59:17.472Z,1000.19
2018-03-23T06:00:17.450Z,1000.18
2018-03-23T06:01:17.437Z,1000.16
2018-03-23T06:02:17.411Z,1000.16
2018-03-23T06:03:17.390Z,1000.12
2018-03-23T06:04:17.379Z,1000.16
2018-03-23T06:05:17.352Z,1000.08
2018-03-23T06:06:17.337Z,1000.1
2018-03-23T06:07:17.312Z,1000.1
2018-03-23T06:08:17.297Z,1000.1
2018-03-23T06:09:17.274Z,1000.1
2018-03-23T06:10:17.254Z,1000.05
2018-03-23T06:11:17.237Z,1000.05
2018-03-23T06:12:17.217Z,1000.06
2018-03-23T06:13:17.200Z,1000.07
2018-03-23T06:14:17.177Z,1000.02
2018-03-23T06:15:17.211Z,1000.07
2018-03-23T06:16:17.140Z,1000.06
2018-03-23T06:17:17.119Z,1000.07
2018-03-23T06:18:17.104Z,1000.05
2018-03-23T06:19:17.082Z,1000.04
2018-03-23T06:20:17.065Z,1000.07
2018-03-23T06:21:17.039Z,1000.09
2018-03-23T06:22:17.140Z,1000.08
2018-03-23T06:23:17.001Z,1000.06
2018-03-23T06:24:16.981Z,1000.05
2018-03-23T06:25:16.961Z,1000.06
2018-03-23T06:26:16.943Z,1000.07
2018-03-23T06:27:16.936Z,1000.07
2018-03-23T06:28:16.904Z,1000.04
2018-03-23T06:29:16.883Z,1000.06
2018-03-23T06:30:16.864Z,1000.03
2018-03-23T06:31:16.848Z,1000.07
2018-03-23T06:32:16.827Z,999.99
2018-03-23T06:33:16.805Z,1000.02
2018-03-23T06:34:16.785Z,999.97
2018-03-23T06:35:16.768Z,1000.01
2018-03-23T06:36:16.746Z,1000.01
2018-03-23T06:37:16.730Z,1000
2018-03-23T06:38:16.709Z,999.99
2018-03-23T06:39:16.688Z,1000.02
2018-03-23T06:40:16.670Z,999.97
2018-03-23T06:41:16.651Z,999.96
2018-03-23T06:42:16.630Z,999.96
2018-03-23T06:43:16.610Z,1000
2018-03-23T06:44:16.590Z,999.98
2018-03-23T06:45:16.572Z,999.97
2018-03-23T06:46:16.550Z,1000.02
2018-03-23T06:47:16.531Z,1000.02
2018-03-23T06:48:16.513Z,999.98
2018-03-23T06:49:16.490Z,1000.04
2018-03-23T06:50:16.476Z,999.98
2018-03-23T06:51:16.456Z,999.99
2018-03-23T06:52:16.435Z,1000
2018-03-23T06:53:16.462Z,999.97
2018-03-23T06:54:16.394Z,999.97
2018-03-23T06:55:16.373Z,1000.02
2018-03-23T06:56:16.355Z,1000
2018-03-23T06:57:16.339Z,1000.02
2018-03-23T06:58:16.320Z,999.99
2018-03-23T06:59:16.301Z,1000.01
2018-03-23T07:00:16.276Z,1000.01
2018-03-23T07:01:16.256Z,999.96
2018-03-23T07:02:16.237Z,999.98
2018-03-23T07:03:16.221Z,999.95
2018-03-23T07:04:16.195Z,999.96
2018-03-23T07:05:16.178Z,999.96
2018-03-23T07:06:16.157Z,999.97
2018-03-23T07:07:16.139Z,999.96
2018-03-23T07:08:16.126Z,999.95
2018-03-23T07:09:16.099Z,999.95
2018-03-23T07:10:16.082Z,999.94
2018-03-23T07:11:16.059Z,999.96
2018-03-23T07:12:16.041Z,999.97
2018-03-23T07:13:16.022Z,999.99
2018-03-23T07:14:16.013Z,999.99
2018-03-23T07:15:15.982Z,1000
2018-03-23T07:16:15.962Z,999.99
2018-03-23T07:17:16.019Z,1000.04
2018-03-23T07:18:15.925Z,1000.02
2018-03-23T07:19:15.907Z,1000
2018-03-23T07:20:15.883Z,1000.01
2018-03-23T07:21:15.866Z,1000.06
2018-03-23T07:22:15.848Z,999.99
2018-03-23T07:23:15.832Z,1000.02
2018-03-23T07:24:15.806Z,1000.01
2018-03-23T07:25:15.788Z,999.96
2018-03-23T07:26:15.770Z,1000
2018-03-23T07:27:15.747Z,999.99
2018-03-23T07:28:15.732Z,1000
2018-03-23T07:29:15.732Z,1000.01
2018-03-23T07:30:15.687Z,1000.02
2018-03-23T07:31:15.669Z,999.97
2018-03-23T07:32:15.647Z,999.99
2018-03-23T07:33:15.627Z,999.95
2018-03-23T07:34:15.607Z,999.94
2018-03-23T07:35:15.589Z,999.98
2018-03-23T07:36:15.568Z,999.91
2018-03-23T07:37:15.549Z,999.91
2018-03-23T07:38:15.529Z,999.91
2018-03-23T07:39:15.508Z,999.96
2018-03-23T07:40:15.488Z,999.94
2018-03-23T07:41:15.470Z,999.98
2018-03-23T07:42:15.452Z,999.98
2018-03-23T07:43:15.431Z,999.98
2018-03-23T07:44:15.411Z,1000
2018-03-23T07:45:15.396Z,1000
2018-03-23T07:46:15.371Z,999.99
2018-03-23T07:47:15.351Z,999.99
2018-03-23T07:48:15.343Z,999.97
2018-03-23T07:49:15.313Z,999.97
2018-03-23T07:50:15.292Z,999.98
2018-03-23T07:51:15.280Z,999.97
2018-03-23T07:52:15.255Z,999.97
2018-03-23T07:53:15.236Z,999.92
2018-03-23T07:54:15.218Z,999.96
2018-03-23T07:55:15.198Z,999.93
2018-03-23T07:56:15.174Z,999.92
2018-03-23T07:57:15.559Z,999.94
2018-03-23T07:58:15.137Z,999.9
2018-03-23T07:59:15.117Z,999.92
2018-03-23T08:00:15.099Z,999.91
2018-03-23T08:01:15.077Z,999.91
2018-03-23T08:02:15.061Z,999.93
2018-03-23T08:03:15.039Z,999.87
2018-03-23T08:04:15.019Z,999.9
2018-03-23T08:05:15.204Z,999.86
2018-03-23T08:06:14.980Z,999.89
2018-03-23T08:07:14.962Z,999.89
2018-03-23T08:08:14.940Z,999.86
2018-03-23T08:09:14.920Z,999.86
2018-03-23T08:10:14.901Z,999.88
2018-03-23T08:11:14.884Z,999.85
2018-03-23T08:12:14.915Z,999.88
2018-03-23T08:13:14.895Z,999.85
2018-03-23T08:14:14.832Z,999.89
2018-03-23T08:15:14.805Z,999.85
2018-03-23T08:16:14.786Z,999.83
2018-03-23T08:17:14.766Z,999.79
2018-03-23T08:18:14.746Z,999.82
2018-03-23T08:19:14.732Z,999.85
2018-03-23T08:20:14.710Z,999.82
2018-03-23T08:21:14.690Z,999.84
2018-03-23T08:22:14.671Z,999.76
2018-03-23T08:23:14.658Z,999.81
2018-03-23T08:24:14.634Z,999.79
2018-03-23T08:25:14.613Z,999.8
2018-03-23T08:26:14.594Z,999.8
2018-03-23T08:27:14.577Z,999.78
2018-03-23T08:28:14.558Z,999.79
2018-03-23T08:29:14.544Z,999.77
2018-03-23T08:30:14.530Z,999.78
2018-03-23T08:31:14.503Z,999.76
2018-03-23T08:32:14.487Z,999.71
2018-03-23T08:33:14.464Z,999.73
2018-03-23T08:34:14.446Z,999.73
2018-03-23T08:35:14.426Z,999.7
2018-03-23T08:36:14.410Z,999.67
2018-03-23T08:37:14.392Z,999.69
2018-03-23T08:38:14.371Z,999.71
2018-03-23T08:39:14.364Z,999.67
2018-03-23T08:40:14.335Z,999.65
2018-03-23T08:41:14.323Z,999.67
2018-03-23T08:42:14.304Z,999.68
2018-03-23T08:43:14.282Z,999.62
2018-03-23T08:44:14.293Z,999.68
2018-03-23T08:45:14.265Z,999.65
2018-03-23T08:46:14.231Z,999.64
2018-03-23T08:47:14.205Z,999.61
2018-03-23T08:48:14.186Z,999.59
2018-03-23T08:49:14.168Z,999.61
2018-03-23T08:50:14.151Z,999.56
2018-03-23T08:51:14.132Z,999.59
2018-03-23T08:52:14.116Z,999.55
2018-03-23T08:53:14.099Z,999.56
2018-03-23T08:54:14.076Z,999.53
2018-03-23T08:55:14.058Z,999.62
2018-03-23T08:56:14.041Z,999.56
2018-03-23T08:57:14.022Z,999.54
2018-03-23T08:58:14.008Z,999.56
2018-03-23T08:59:13.986Z,999.59
2018-03-23T09:00:14.049Z,999.53
2018-03-23T09:01:13.955Z,999.6
2018-03-23T09:02:13.933Z,999.53
2018-03-23T09:03:13.913Z,999.54
2018-03-23T09:04:13.894Z,999.51
2018-03-23T09:05:13.878Z,999.51
2018-03-23T09:06:13.859Z,999.57
2018-03-23T09:07:13.842Z,999.54
2018-03-23T09:08:13.835Z,999.51
2018-03-23T09:09:13.803Z,999.52
2018-03-23T09:10:13.788Z,999.52
2018-03-23T09:11:13.768Z,999.49
2018-03-23T09:12:13.748Z,999.5
2018-03-23T09:13:13.730Z,999.45
2018-03-23T09:14:13.760Z,999.48
2018-03-23T09:15:13.691Z,999.46
2018-03-23T09:16:13.676Z,999.47
2018-03-23T09:17:13.703Z,999.5
2018-03-23T09:18:13.639Z,999.42
2018-03-23T09:19:13.621Z,999.46
2018-03-23T09:20:13.602Z,999.41
2018-03-23T09:21:13.588Z,999.41
2018-03-23T09:22:13.567Z,999.41
2018-03-23T09:23:13.546Z,999.4
2018-03-23T09:24:13.529Z,999.34
2018-03-23T09:25:13.512Z,999.37
2018-03-23T09:26:13.497Z,999.39
2018-03-23T09:27:13.476Z,999.35
2018-03-23T09:28:13.460Z,999.32
2018-03-23T09:29:13.440Z,999.34
2018-03-23T09:30:13.423Z,999.33
2018-03-23T09:31:13.448Z,999.32
2018-03-23T09:32:13.387Z,999.29
2018-03-23T09:33:13.369Z,999.29
2018-03-23T09:34:13.350Z,999.27
2018-03-23T09:35:13.332Z,999.26
2018-03-23T09:36:13.314Z,999.29
2018-03-23T09:37:13.342Z,999.25
2018-03-23T09:38:13.278Z,999.21
2018-03-23T09:39:13.261Z,999.2
2018-03-23T09:40:13.244Z,999.23
2018-03-23T09:41:13.223Z,999.2
2018-03-23T09:42:13.207Z,999.25
2018-03-23T09:43:13.189Z,999.21
2018-03-23T09:44:13.174Z,999.17
2018-03-23T09:45:13.154Z,999.2
2018-03-23T09:46:13.136Z,999.19
2018-03-23T09:47:13.118Z,999.15
2018-03-23T09:48:13.104Z,999.17
2018-03-23T09:49:13.088Z,999.18
2018-03-23T09:50:13.158Z,999.16
2018-03-23T09:51:13.047Z,999.16
2018-03-23T09:52:13.030Z,999.18
2018-03-23T09:53:13.011Z,999.14
2018-03-23T09:54:12.993Z,999.15
2018-03-23T09:55:12.976Z,999.16
2018-03-23T09:56:12.958Z,999.12
2018-03-23T09:57:12.949Z,999.11
2018-03-23T09:58:12.925Z,999.13
2018-03-23T09:59:12.904Z,999.12
2018-03-23T10:00:12.886Z,999.1
2018-03-23T10:01:12.912Z,999.08
2018-03-23T10:02:12.853Z,999.09
2018-03-23T10:03:12.832Z,999.12
2018-03-23T10:04:12.816Z,999.06
2018-03-23T10:05:12.799Z,999.05
2018-03-23T10:06:12.828Z,999.07
2018-03-23T10:07:12.761Z,999.04
2018-03-23T10:08:12.745Z,999.02
2018-03-23T10:09:12.726Z,999.03
2018-03-23T10:10:12.710Z,999
2018-03-23T10:11:12.692Z,999.03
2018-03-23T10:12:12.674Z,998.98
2018-03-23T10:13:12.667Z,998.98
2018-03-23T10:14:12.637Z,998.98
2018-03-23T10:15:12.619Z,999.01
2018-03-23T10:16:12.608Z,999
2018-03-23T10:17:12.584Z,999
2018-03-23T10:18:12.571Z,998.98
2018-03-23T10:19:12.551Z,998.95
2018-03-23T10:20:12.556Z,998.94
2018-03-23T10:21:12.576Z,998.95
2018-03-23T10:22:12.497Z,998.94
2018-03-23T10:23:12.484Z,998.9
2018-03-23T10:24:12.457Z,998.95
2018-03-23T10:25:12.445Z,998.9
2018-03-23T10:26:12.422Z,998.88
2018-03-23T10:27:12.425Z,998.94
2018-03-23T10:28:12.389Z,998.87
2018-03-23T10:29:12.421Z,998.84
2018-03-23T10:30:12.408Z,998.88
2018-03-23T10:31:12.338Z,998.85
2018-03-23T10:32:12.318Z,998.76
2018-03-23T10:33:12.361Z,998.77
2018-03-23T10:34:12.327Z,998.77
2018-03-23T10:35:12.274Z,998.77
2018-03-23T10:36:12.248Z,998.76
2018-03-23T10:37:12.240Z,998.76
2018-03-23T10:38:12.214Z,998.76
2018-03-23T10:39:12.196Z,998.73
2018-03-23T10:40:12.179Z,998.71
2018-03-23T10:41:12.163Z,998.74
2018-03-23T10:42:12.201Z,998.71
2018-03-23T10:43:12.256Z,998.67
2018-03-23T10:44:12.115Z,998.69
2018-03-23T10:45:12.093Z,998.72
2018-03-23T10:46:12.076Z,998.66
2018-03-23T10:47:12.111Z,998.67
2018-03-23T10:48:12.045Z,998.69
2018-03-23T10:49:12.085Z,998.65
2018-03-23T10:50:12.032Z,998.69
2018-03-23T10:51:11.992Z,998.65
2018-03-23T10:52:11.979Z,998.66
2018-03-23T10:53:11.962Z,998.67
2018-03-23T10:54:11.947Z,998.69
2018-03-23T10:55:11.973Z,998.65
2018-03-23T10:56:11.915Z,998.61
2018-03-23T10:57:11.902Z,998.61
2018-03-23T10:58:11.888Z,998.57
2018-03-23T10:59:11.991Z,998.6
2018-03-23T11:00:11.940Z,998.57
2018-03-23T11:01:11.855Z,998.54
2018-03-23T11:02:11.897Z,998.54
2018-03-23T11:03:11.814Z,998.52
2018-03-23T11:04:11.884Z,998.48
2018-03-23T11:05:11.852Z,998.51
2018-03-23T11:06:11.830Z,998.49
2018-03-23T11:07:11.773Z,998.5
2018-03-23T11:08:11.741Z,998.47
2018-03-23T11:09:11.738Z,998.48
2018-03-23T11:10:11.712Z,998.41
2018-03-23T11:11:11.713Z,998.4
2018-03-23T11:12:11.683Z,998.38
2018-03-23T11:13:11.670Z,998.47
2018-03-23T11:14:11.653Z,998.44
2018-03-23T11:15:11.643Z,998.4
2018-03-23T11:16:11.627Z,998.36
2018-03-23T11:17:11.611Z,998.36
2018-03-23T11:18:11.596Z,998.38
2018-03-23T11:19:11.580Z,998.33
2018-03-23T11:20:11.576Z,998.29
2018-03-23T11:21:11.552Z,998.31
2018-03-23T11:22:11.535Z,998.25
2018-03-23T11:23:11.520Z,998.22
2018-03-23T11:24:11.508Z,998.18
2018-03-23T11:25:11.491Z,998.18
2018-03-23T11:26:11.477Z,998.14
2018-03-23T11:27:11.461Z,998.19
2018-03-23T11:28:11.449Z,998.16
2018-03-23T11:29:11.431Z,998.23
2018-03-23T11:30:11.441Z,998.25
2018-03-23T11:31:11.405Z,998.2
2018-03-23T11:32:11.387Z,998.17
2018-03-23T11:33:11.373Z,998.14
2018-03-23T11:34:11.358Z,998.13
2018-03-23T11:35:11.340Z,998.11
2018-03-23T11:36:11.325Z,998.15
2018-03-23T11:37:11.311Z,998.13
2018-03-23T11:38:11.293Z,998.14
2018-03-23T11:39:11.281Z,998.11
2018-03-23T11:40:11.265Z,998.09
2018-03-23T11:41:11.248Z,998.09
2018-03-23T11:42:11.237Z,998.06
2018-03-23T11:43:11.215Z,998.04
2018-03-23T11:44:11.206Z,998.04
2018-03-23T11:45:11.184Z,998.02
2018-03-23T11:46:11.169Z,998.03
2018-03-23T11:47:11.152Z,998.02
2018-03-23T11:48:11.141Z,998.01
2018-03-23T11:49:11.120Z,997.97
2018-03-23T11:50:11.107Z,997.95
2018-03-23T11:51:11.088Z,997.93
2018-03-23T11:52:11.072Z,997.87
2018-03-23T11:53:11.056Z,997.85
2018-03-23T11:54:11.041Z,997.83
2018-03-23T11:55:11.023Z,997.87
2018-03-23T11:56:11.005Z,997.91
2018-03-23T11:57:10.990Z,997.88
2018-03-23T11:58:11.176Z,997.88
2018-03-23T11:59:10.957Z,997.84
2018-03-23T12:00:10.946Z,997.83
2018-03-23T12:01:10.930Z,997.82
2018-03-23T12:02:10.909Z,997.78
2018-03-23T12:03:10.893Z,997.81
2018-03-23T12:04:10.875Z,997.78
2018-03-23T12:05:10.864Z,997.75
2018-03-23T12:06:10.842Z,997.76
2018-03-23T12:07:10.824Z,997.77
2018-03-23T12:08:10.809Z,997.74
2018-03-23T12:09:10.792Z,997.72
2018-03-23T12:10:10.775Z,997.69
2018-03-23T12:11:10.757Z,997.67
2018-03-23T12:12:10.740Z,997.65
2018-03-23T12:13:10.723Z,997.63
2018-03-23T12:14:10.707Z,997.61
2018-03-23T12:15:10.690Z,997.62
2018-03-23T12:16:10.673Z,997.57
2018-03-23T12:17:10.656Z,997.59
2018-03-23T12:18:10.638Z,997.55